Time;durP1;ratioP1;P1;durP2;ratioP2;P2;SDS_P1;SDS_P2;PMS_P1;PMS_P2;Temp;Humidity;BMP_temperature;BMP_pressure;BME280_temperature;BME280_humidity;BME280_pressure;Samples;Min_cycle;Max_cycle;Signal;HPM_P1;HPM_P2
2023/02/18 00:01:55;;;;;;;;;;;;;;;;;;5046563;28;19913;-61
2023/02/18 00:04:21;;;;;;;;;;;;;;;;;;5039935;28;20356;-61
2023/02/18 00:06:47;;;;;;;;;;;;;;;;;;5052139;28;19917;-61
2023/02/18 00:09:13;;;;;;;;;;;;;;;;;;5053028;28;19925;-61
2023/02/18 00:11:39;;;;;;;;;;;;;;;;;;5051783;28;20041;-60
2023/02/18 00:14:05;;;;;;;;;;;;;;;;;;5063236;28;19951;-61
2023/02/18 00:16:31;;;;;;;;;;;;;;;;;;5036919;28;19972;-61
2023/02/18 00:18:57;;;;;;;;;;;;;;;;;;5046124;28;20785;-62
2023/02/18 00:21:23;;;;;;;;;;;;;;;;;;5050309;28;19959;-61
2023/02/18 00:23:48;;;;;;;;;;;;;;;;;;5042148;28;19920;-61
2023/02/18 00:26:14;;;;;;;;;;;;;;;;;;5036364;28;20398;-62
2023/02/18 00:28:40;;;;;;;;;;;;;;;;;;5046733;28;19913;-62
2023/02/18 00:31:06;;;;;;;;;;;;;;;;;;5054464;28;19956;-61
2023/02/18 00:33:32;;;;;;;;;;;;;;;;;;5055706;28;19908;-61
2023/02/18 00:35:58;;;;;;;;;;;;;;;;;;5054380;28;19917;-61
2023/02/18 00:38:24;;;;;;;;;;;;;;;;;;5055834;28;19932;-61
2023/02/18 00:40:50;;;;;;;;;;;;;;;;;;5053626;28;19944;-61
2023/02/18 00:43:16;;;;;;;;;;;;;;;;;;5055189;28;19922;-62
2023/02/18 00:45:42;;;;;;;;;;;;;;;;;;5051375;28;20423;-61
2023/02/18 00:48:07;;;;;;;;;;;;;;;;;;5048912;28;19917;-61
2023/02/18 00:50:33;;;;;;;;;;;;;;;;;;5049681;28;19916;-61
2023/02/18 00:52:59;;;;;;;;;;;;;;;;;;5055825;28;19908;-61
2023/02/18 00:55:25;;;;;;;;;;;;;;;;;;5054579;28;19952;-61
2023/02/18 00:57:51;;;;;;;;;;;;;;;;;;5055521;28;19909;-61
2023/02/18 01:00:17;;;;;;;;;;;;;;;;;;5054132;28;20368;-60
2023/02/18 01:02:43;;;;;;;;;;;;;;;;;;5055253;28;19923;-61
2023/02/18 01:05:09;;;;;;;;;;;;;;;;;;5055330;28;19923;-61
2023/02/18 01:07:35;;;;;;;;;;;;;;;;;;5055258;28;20019;-61
2023/02/18 01:10:01;;;;;;;;;;;;;;;;;;5054959;28;20343;-61
2023/02/18 01:12:26;;;;;;;;;;;;;;;;;;5055224;28;19991;-61
2023/02/18 01:14:52;;;;;;;;;;;;;;;;;;5040290;28;19925;-60
2023/02/18 01:17:18;;;;;;;;;;;;;;;;;;5038108;28;19921;-61
2023/02/18 01:19:44;;;;;;;;;;;;;;;;;;5044360;28;19966;-61
2023/02/18 01:22:10;;;;;;;;;;;;;;;;;;5046515;28;20387;-62
2023/02/18 01:24:37;;;;;;;;;;;;;;;;;;5057351;28;19913;-61
2023/02/18 01:27:03;;;;;;;;;;;;;;;;;;5044780;28;20342;-61
2023/02/18 01:29:29;;;;;;;;;;;;;;;;;;5043233;28;20009;-61
2023/02/18 01:31:54;;;;;;;;;;;;;;;;;;5042919;28;19932;-61
2023/02/18 01:34:20;;;;;;;;;;;;;;;;;;5056710;28;20002;-61
2023/02/18 01:36:46;;;;;;;;;;;;;;;;;;5038442;28;19955;-61
2023/02/18 01:39:12;;;;;;;;;;;;;;;;;;5035931;28;19970;-61
2023/02/18 01:41:38;;;;;;;;;;;;;;;;;;5051753;28;19913;-61
2023/02/18 01:44:04;;;;;;;;;;;;;;;;;;5047594;28;19927;-60
2023/02/18 01:46:30;;;;;;;;;;;;;;;;;;5041585;28;20395;-61
2023/02/18 01:48:56;;;;;;;;;;;;;;;;;;5047903;28;19983;-61
2023/02/18 01:51:22;;;;;;;;;;;;;;;;;;5052521;28;20353;-61
2023/02/18 01:53:48;;;;;;;;;;;;;;;;;;5047527;28;19944;-61
2023/02/18 01:56:14;;;;;;;;;;;;;;;;;;5048344;28;20299;-61
2023/02/18 01:58:40;;;;;;;;;;;;;;;;;;5034598;28;19914;-61
2023/02/18 02:01:06;;;;;;;;;;;;;;;;;;5044186;28;19952;-59
2023/02/18 02:03:32;;;;;;;;;;;;;;;;;;5054240;28;20384;-58
2023/02/18 02:05:58;;;;;;;;;;;;;;;;;;5051046;28;19913;-59
2023/02/18 02:08:23;;;;;;;;;;;;;;;;;;5053018;28;19989;-58
2023/02/18 02:10:49;;;;;;;;;;;;;;;;;;5051804;28;19959;-58
2023/02/18 02:13:15;;;;;;;;;;;;;;;;;;5052193;28;20011;-59
2023/02/18 02:15:41;;;;;;;;;;;;;;;;;;5053618;28;20423;-59
2023/02/18 02:18:07;;;;;;;;;;;;;;;;;;5050051;28;19913;-58
2023/02/18 02:20:33;;;;;;;;;;;;;;;;;;5047695;28;20146;-59
2023/02/18 02:22:59;;;;;;;;;;;;;;;;;;5051606;28;19996;-59
2023/02/18 02:25:25;;;;;;;;;;;;;;;;;;5050588;28;19999;-58
2023/02/18 02:27:51;;;;;;;;;;;;;;;;;;5042125;28;19913;-59
2023/02/18 02:30:16;;;;;;;;;;;;;;;;;;5035681;28;20352;-58
2023/02/18 02:32:42;;;;;;;;;;;;;;;;;;5041830;28;19999;-60
2023/02/18 02:35:08;;;;;;;;;;;;;;;;;;5052251;28;20333;-59
2023/02/18 02:37:34;;;;;;;;;;;;;;;;;;5043708;28;19921;-59
2023/02/18 02:40:00;;;;;;;;;;;;;;;;;;5053293;28;19908;-58
2023/02/18 02:42:26;;;;;;;;;;;;;;;;;;5051193;28;19951;-59
2023/02/18 02:44:52;;;;;;;;;;;;;;;;;;5045112;28;19944;-59
2023/02/18 02:47:18;;;;;;;;;;;;;;;;;;5042066;28;19964;-58
2023/02/18 02:49:44;;;;;;;;;;;;;;;;;;5039517;28;20007;-59
2023/02/18 02:52:10;;;;;;;;;;;;;;;;;;5052422;28;19917;-58
2023/02/18 02:54:35;;;;;;;;;;;;;;;;;;5047055;28;20433;-58
2023/02/18 02:57:01;;;;;;;;;;;;;;;;;;5043012;28;20391;-58
2023/02/18 02:59:27;;;;;;;;;;;;;;;;;;5033380;28;19956;-58
2023/02/18 03:01:53;;;;;;;;;;;;;;;;;;5035306;28;19923;-59
2023/02/18 03:04:19;;;;;;;;;;;;;;;;;;5046832;28;20348;-58
2023/02/18 03:06:45;;;;;;;;;;;;;;;;;;5050170;28;19971;-58
2023/02/18 03:09:11;;;;;;;;;;;;;;;;;;5051984;28;19917;-59
2023/02/18 03:11:37;;;;;;;;;;;;;;;;;;5051520;28;19917;-59
2023/02/18 03:14:03;;;;;;;;;;;;;;;;;;5047663;28;20348;-59
2023/02/18 03:16:29;;;;;;;;;;;;;;;;;;5050488;28;19929;-58
2023/02/18 03:18:54;;;;;;;;;;;;;;;;;;5045574;28;19935;-58
2023/02/18 03:21:20;;;;;;;;;;;;;;;;;;5037510;28;19940;-58
2023/02/18 03:23:46;;;;;;;;;;;;;;;;;;5038215;28;19923;-59
2023/02/18 03:26:12;;;;;;;;;;;;;;;;;;5040607;28;19913;-58
2023/02/18 03:28:38;;;;;;;;;;;;;;;;;;5036862;28;19972;-58
2023/02/18 03:31:04;;;;;;;;;;;;;;;;;;5045175;28;20398;-59
2023/02/18 03:33:30;;;;;;;;;;;;;;;;;;5048592;28;19912;-58
2023/02/18 03:35:56;;;;;;;;;;;;;;;;;;5037869;28;20353;-58
2023/02/18 03:38:22;;;;;;;;;;;;;;;;;;5041219;28;19967;-60
2023/02/18 03:40:48;;;;;;;;;;;;;;;;;;5043962;28;19968;-58
2023/02/18 03:43:13;;;;;;;;;;;;;;;;;;5043965;28;20402;-59
2023/02/18 03:45:39;;;;;;;;;;;;;;;;;;5046133;28;19970;-58
2023/02/18 03:48:05;;;;;;;;;;;;;;;;;;5032198;28;19966;-58
2023/02/18 03:50:31;;;;;;;;;;;;;;;;;;5043712;28;19979;-58
2023/02/18 03:52:57;;;;;;;;;;;;;;;;;;5043227;28;20019;-57
2023/02/18 03:55:23;;;;;;;;;;;;;;;;;;5042175;28;19967;-59
2023/02/18 03:57:49;;;;;;;;;;;;;;;;;;5043006;28;20392;-58
2023/02/18 04:00:15;;;;;;;;;;;;;;;;;;5044850;28;19963;-58
2023/02/18 04:02:41;;;;;;;;;;;;;;;;;;5060481;28;19967;-59
2023/02/18 04:05:07;;;;;;;;;;;;;;;;;;5068422;28;19959;-58
2023/02/18 04:07:32;;;;;;;;;;;;;;;;;;5052333;28;19920;-59
2023/02/18 04:09:58;;;;;;;;;;;;;;;;;;5042191;28;19917;-59
2023/02/18 04:12:24;;;;;;;;;;;;;;;;;;5032179;28;20047;-58
2023/02/18 04:14:50;;;;;;;;;;;;;;;;;;5050288;28;19917;-58
2023/02/18 04:17:16;;;;;;;;;;;;;;;;;;5053851;28;19912;-58
2023/02/18 04:19:42;;;;;;;;;;;;;;;;;;5066854;28;19975;-58
2023/02/18 04:22:08;;;;;;;;;;;;;;;;;;5051822;28;20007;-58
2023/02/18 04:24:34;;;;;;;;;;;;;;;;;;5047319;28;19956;-59
2023/02/18 04:27:00;;;;;;;;;;;;;;;;;;5050796;28;20323;-59
2023/02/18 04:29:26;;;;;;;;;;;;;;;;;;5052045;28;19909;-59
2023/02/18 04:31:51;;;;;;;;;;;;;;;;;;5051416;28;19912;-58
2023/02/18 04:34:17;;;;;;;;;;;;;;;;;;5046177;28;19954;-59
2023/02/18 04:36:43;;;;;;;;;;;;;;;;;;5040906;28;20044;-58
2023/02/18 04:39:09;;;;;;;;;;;;;;;;;;5046054;28;20356;-59
2023/02/18 04:41:35;;;;;;;;;;;;;;;;;;5048719;28;19940;-58
2023/02/18 04:44:01;;;;;;;;;;;;;;;;;;5051246;28;20343;-59
2023/02/18 04:46:27;;;;;;;;;;;;;;;;;;5040980;28;19913;-58
2023/02/18 04:48:53;;;;;;;;;;;;;;;;;;5035770;28;19913;-59
2023/02/18 04:51:19;;;;;;;;;;;;;;;;;;5049904;28;19927;-59
2023/02/18 04:53:45;;;;;;;;;;;;;;;;;;5042728;28;19971;-59
2023/02/18 04:56:11;;;;;;;;;;;;;;;;;;5047066;28;19980;-59
2023/02/18 04:58:37;;;;;;;;;;;;;;;;;;5044942;28;19974;-58
2023/02/18 05:01:02;;;;;;;;;;;;;;;;;;5047262;28;19917;-58
2023/02/18 05:03:28;;;;;;;;;;;;;;;;;;5036742;28;19952;-60
2023/02/18 05:05:54;;;;;;;;;;;;;;;;;;5053455;28;19923;-59
2023/02/18 05:08:20;;;;;;;;;;;;;;;;;;5053913;28;19967;-60
2023/02/18 05:10:46;;;;;;;;;;;;;;;;;;5050168;28;19913;-60
2023/02/18 05:13:12;;;;;;;;;;;;;;;;;;5054062;28;19909;-60
2023/02/18 05:15:38;;;;;;;;;;;;;;;;;;5057493;28;20449;-59
2023/02/18 05:18:04;;;;;;;;;;;;;;;;;;5059375;28;19917;-59
2023/02/18 05:20:30;;;;;;;;;;;;;;;;;;5053698;28;20354;-60
2023/02/18 05:22:55;;;;;;;;;;;;;;;;;;5053776;28;19923;-58
2023/02/18 05:25:21;;;;;;;;;;;;;;;;;;5050647;28;19909;-58
2023/02/18 05:27:47;;;;;;;;;;;;;;;;;;5053901;28;20382;-58
2023/02/18 05:30:13;;;;;;;;;;;;;;;;;;5052264;28;19912;-58
2023/02/18 05:32:39;;;;;;;;;;;;;;;;;;5056923;28;20386;-58
2023/02/18 05:35:05;;;;;;;;;;;;;;;;;;5048685;28;19916;-59
2023/02/18 05:37:31;;;;;;;;;;;;;;;;;;5041631;28;19959;-59
2023/02/18 05:39:57;;;;;;;;;;;;;;;;;;5046607;28;19920;-58
2023/02/18 05:42:23;;;;;;;;;;;;;;;;;;5049822;28;19916;-58
2023/02/18 05:44:49;;;;;;;;;;;;;;;;;;5049094;28;19952;-58
2023/02/18 05:47:14;;;;;;;;;;;;;;;;;;5037794;28;20353;-58
2023/02/18 05:49:40;;;;;;;;;;;;;;;;;;5051346;28;19913;-59
2023/02/18 05:52:06;;;;;;;;;;;;;;;;;;5051117;28;19909;-58
2023/02/18 05:54:32;;;;;;;;;;;;;;;;;;5052669;28;20349;-59
2023/02/18 05:56:58;;;;;;;;;;;;;;;;;;5046672;28;20451;-58
2023/02/18 05:59:24;;;;;;;;;;;;;;;;;;5043077;28;20328;-58
2023/02/18 06:01:50;;;;;;;;;;;;;;;;;;5051203;28;20015;-60
2023/02/18 06:04:16;;;;;;;;;;;;;;;;;;5051514;28;20311;-58
2023/02/18 06:06:42;;;;;;;;;;;;;;;;;;5050195;28;19960;-59
2023/02/18 06:09:08;;;;;;;;;;;;;;;;;;5063799;28;19964;-59
2023/02/18 06:11:34;;;;;;;;;;;;;;;;;;5043818;28;19916;-58
2023/02/18 06:13:59;;;;;;;;;;;;;;;;;;5044804;28;19917;-59
2023/02/18 06:16:25;;;;;;;;;;;;;;;;;;5057118;28;20007;-59
2023/02/18 06:18:51;;;;;;;;;;;;;;;;;;5053061;28;19954;-58
2023/02/18 06:21:17;;;;;;;;;;;;;;;;;;5044957;28;19913;-58
2023/02/18 06:23:43;;;;;;;;;;;;;;;;;;5058038;28;19963;-58
2023/02/18 06:26:09;;;;;;;;;;;;;;;;;;5044231;28;20395;-59
2023/02/18 06:28:35;;;;;;;;;;;;;;;;;;5047189;28;20007;-58
2023/02/18 06:31:01;;;;;;;;;;;;;;;;;;5052282;28;19909;-59
2023/02/18 06:33:27;;;;;;;;;;;;;;;;;;5043199;28;19967;-59
2023/02/18 06:35:52;;;;;;;;;;;;;;;;;;5056880;28;19923;-60
2023/02/18 06:38:19;;;;;;;;;;;;;;;;;;5046459;28;19913;-58
2023/02/18 06:40:45;;;;;;;;;;;;;;;;;;5050762;28;19916;-58
2023/02/18 06:43:11;;;;;;;;;;;;;;;;;;5049715;28;19938;-58
2023/02/18 06:45:37;;;;;;;;;;;;;;;;;;5055813;28;19913;-58
2023/02/18 06:48:03;;;;;;;;;;;;;;;;;;5055751;28;20003;-58
2023/02/18 06:50:29;;;;;;;;;;;;;;;;;;5051243;28;20003;-58
2023/02/18 06:52:54;;;;;;;;;;;;;;;;;;5049610;28;19923;-58
2023/02/18 06:55:20;;;;;;;;;;;;;;;;;;5053850;28;20388;-58
2023/02/18 06:57:46;;;;;;;;;;;;;;;;;;5046307;28;19948;-58
2023/02/18 07:00:12;;;;;;;;;;;;;;;;;;5049201;28;19935;-58
2023/02/18 07:02:38;;;;;;;;;;;;;;;;;;5051885;28;19940;-58
2023/02/18 07:05:04;;;;;;;;;;;;;;;;;;5045197;28;19917;-59
2023/02/18 07:07:30;;;;;;;;;;;;;;;;;;5048783;28;19917;-59
2023/02/18 07:09:56;;;;;;;;;;;;;;;;;;5044784;28;20975;-59
2023/02/18 07:12:22;;;;;;;;;;;;;;;;;;5044112;28;19948;-58
2023/02/18 07:14:48;;;;;;;;;;;;;;;;;;5050257;28;19919;-59
2023/02/18 07:17:15;;;;;;;;;;;;;;;;;;5038880;28;21535;-59
2023/02/18 07:19:41;;;;;;;;;;;;;;;;;;5047828;28;19948;-58
2023/02/18 07:22:07;;;;;;;;;;;;;;;;;;5039112;28;19917;-58
2023/02/18 07:24:33;;;;;;;;;;;;;;;;;;5050088;28;20027;-58
2023/02/18 07:26:59;;;;;;;;;;;;;;;;;;5042380;28;19956;-59
2023/02/18 07:29:25;;;;;;;;;;;;;;;;;;5041619;28;20283;-58
2023/02/18 07:31:51;;;;;;;;;;;;;;;;;;5049207;28;20000;-58
2023/02/18 07:34:16;;;;;;;;;;;;;;;;;;5040493;28;19927;-57
2023/02/18 07:36:42;;;;;;;;;;;;;;;;;;5051959;28;19948;-58
2023/02/18 07:39:08;;;;;;;;;;;;;;;;;;5050154;28;19916;-59
2023/02/18 07:41:34;;;;;;;;;;;;;;;;;;5046175;28;19955;-59
2023/02/18 07:44:00;;;;;;;;;;;;;;;;;;5037999;28;20560;-58
2023/02/18 07:46:26;;;;;;;;;;;;;;;;;;5041187;28;19920;-59
2023/02/18 07:48:52;;;;;;;;;;;;;;;;;;5049638;28;20571;-59
2023/02/18 07:51:18;;;;;;;;;;;;;;;;;;5041574;28;20387;-61
2023/02/18 07:53:44;;;;;;;;;;;;;;;;;;5046014;28;19917;-58
2023/02/18 07:56:10;;;;;;;;;;;;;;;;;;5037708;28;19996;-58
2023/02/18 07:58:36;;;;;;;;;;;;;;;;;;5042554;28;20312;-58
2023/02/18 08:01:02;;;;;;;;;;;;;;;;;;5038158;28;19963;-59
2023/02/18 08:03:28;;;;;;;;;;;;;;;;;;5044286;28;19917;-58
2023/02/18 08:05:54;;;;;;;;;;;;;;;;;;5046595;28;19921;-58
2023/02/18 08:08:20;;;;;;;;;;;;;;;;;;5047231;28;20023;-58
2023/02/18 08:10:46;;;;;;;;;;;;;;;;;;5037837;28;20420;-58
2023/02/18 08:13:12;;;;;;;;;;;;;;;;;;5048872;28;20050;-60
2023/02/18 08:15:37;;;;;;;;;;;;;;;;;;5051440;28;19965;-59
2023/02/18 08:18:03;;;;;;;;;;;;;;;;;;5059360;28;19944;-60
2023/02/18 08:20:29;;;;;;;;;;;;;;;;;;5048046;28;19923;-58
2023/02/18 08:22:55;;;;;;;;;;;;;;;;;;5049767;28;20008;-59
2023/02/18 08:25:21;;;;;;;;;;;;;;;;;;5041253;28;19919;-58
2023/02/18 08:27:47;;;;;;;;;;;;;;;;;;5060180;28;19913;-59
2023/02/18 08:30:13;;;;;;;;;;;;;;;;;;5045316;28;19966;-59
2023/02/18 08:32:39;;;;;;;;;;;;;;;;;;5054580;28;19923;-58
2023/02/18 08:35:06;;;;;;;;;;;;;;;;;;5054913;28;20005;-59
2023/02/18 08:37:32;;;;;;;;;;;;;;;;;;5040675;28;20023;-58
2023/02/18 08:39:58;;;;;;;;;;;;;;;;;;5050979;28;19995;-59
2023/02/18 08:42:24;;;;;;;;;;;;;;;;;;5041197;28;20363;-58
2023/02/18 08:44:50;;;;;;;;;;;;;;;;;;5048209;28;19920;-59
2023/02/18 08:47:16;;;;;;;;;;;;;;;;;;5051946;28;19975;-58
2023/02/18 08:49:41;;;;;;;;;;;;;;;;;;5042567;28;19978;-59
2023/02/18 08:52:07;;;;;;;;;;;;;;;;;;5047115;28;20028;-59
2023/02/18 08:54:33;;;;;;;;;;;;;;;;;;5042664;28;19919;-58
2023/02/18 08:56:59;;;;;;;;;;;;;;;;;;5049712;28;19924;-59
2023/02/18 08:59:25;;;;;;;;;;;;;;;;;;5046479;28;19959;-59
2023/02/18 09:01:51;;;;;;;;;;;;;;;;;;5042172;28;20011;-58
2023/02/18 09:04:17;;;;;;;;;;;;;;;;;;5045405;28;20355;-59
2023/02/18 09:06:43;;;;;;;;;;;;;;;;;;5046167;28;19967;-59
2023/02/18 09:09:09;;;;;;;;;;;;;;;;;;5047875;28;19925;-58
2023/02/18 09:11:35;;;;;;;;;;;;;;;;;;5047120;28;19916;-58
2023/02/18 09:14:01;;;;;;;;;;;;;;;;;;5049664;28;19919;-58
2023/02/18 09:16:28;;;;;;;;;;;;;;;;;;5048001;28;19924;-59
2023/02/18 09:18:54;;;;;;;;;;;;;;;;;;5046749;28;19956;-60
2023/02/18 09:21:21;;;;;;;;;;;;;;;;;;5040816;28;19971;-58
2023/02/18 09:23:47;;;;;;;;;;;;;;;;;;5052569;28;20052;-58
2023/02/18 09:26:13;;;;;;;;;;;;;;;;;;5047285;28;19996;-57
2023/02/18 09:28:39;;;;;;;;;;;;;;;;;;5040679;28;20272;-59
2023/02/18 09:31:05;;;;;;;;;;;;;;;;;;5042373;28;19917;-59
2023/02/18 09:33:31;;;;;;;;;;;;;;;;;;5041244;28;19927;-58
2023/02/18 09:35:56;;;;;;;;;;;;;;;;;;5041242;28;20007;-58
2023/02/18 09:38:22;;;;;;;;;;;;;;;;;;5044219;28;20391;-58
2023/02/18 09:40:48;;;;;;;;;;;;;;;;;;5046443;28;19956;-58
2023/02/18 09:43:14;;;;;;;;;;;;;;;;;;5044845;28;19924;-58
2023/02/18 09:45:40;;;;;;;;;;;;;;;;;;5049399;28;19963;-58
2023/02/18 09:48:06;;;;;;;;;;;;;;;;;;5048258;28;20046;-59
2023/02/18 09:50:32;;;;;;;;;;;;;;;;;;5048275;28;19916;-56
2023/02/18 09:52:58;;;;;;;;;;;;;;;;;;5065589;28;19912;-58
2023/02/18 09:55:24;;;;;;;;;;;;;;;;;;5045653;28;19966;-57
2023/02/18 09:57:50;;;;;;;;;;;;;;;;;;5050273;28;20001;-58
2023/02/18 10:00:16;;;;;;;;;;;;;;;;;;5047052;28;20384;-59
2023/02/18 10:02:42;;;;;;;;;;;;;;;;;;5047832;28;19944;-59
2023/02/18 10:05:08;;;;;;;;;;;;;;;;;;5052029;28;19947;-57
2023/02/18 10:07:34;;;;;;;;;;;;;;;;;;5051540;28;20269;-58
2023/02/18 10:09:59;;;;;;;;;;;;;;;;;;5045445;28;19917;-58
2023/02/18 10:12:25;;;;;;;;;;;;;;;;;;5047118;28;19913;-58
2023/02/18 10:14:51;;;;;;;;;;;;;;;;;;5045549;28;20007;-58
2023/02/18 10:17:17;;;;;;;;;;;;;;;;;;5045161;28;19920;-58
2023/02/18 10:19:43;;;;;;;;;;;;;;;;;;5044925;28;20016;-60
2023/02/18 10:22:09;;;;;;;;;;;;;;;;;;5042222;28;19917;-58
2023/02/18 10:24:35;;;;;;;;;;;;;;;;;;5042395;28;19913;-57
2023/02/18 10:27:01;;;;;;;;;;;;;;;;;;5041085;28;19974;-58
2023/02/18 10:29:28;;;;;;;;;;;;;;;;;;5050605;28;19959;-58
2023/02/18 10:31:54;;;;;;;;;;;;;;;;;;5052085;28;19963;-57
2023/02/18 10:34:19;;;;;;;;;;;;;;;;;;5046526;28;19968;-58
2023/02/18 10:36:45;;;;;;;;;;;;;;;;;;5044861;28;20024;-58
2023/02/18 10:39:11;;;;;;;;;;;;;;;;;;5055624;28;19917;-57
2023/02/18 10:41:37;;;;;;;;;;;;;;;;;;5044040;28;20005;-58
2023/02/18 10:44:03;;;;;;;;;;;;;;;;;;5039907;28;20051;-58
2023/02/18 10:46:29;;;;;;;;;;;;;;;;;;5040677;28;20443;-58
2023/02/18 10:48:55;;;;;;;;;;;;;;;;;;5044701;28;19919;-59
2023/02/18 10:51:21;;;;;;;;;;;;;;;;;;5036344;28;20062;-57
2023/02/18 10:53:47;;;;;;;;;;;;;;;;;;5050055;28;20011;-60
2023/02/18 10:56:13;;;;;;;;;;;;;;;;;;5039587;28;19921;-57
2023/02/18 10:58:39;;;;;;;;;;;;;;;;;;5044602;28;19956;-61
2023/02/18 11:01:07;;;;;;;;;;;;;;;;;;5037834;28;19986;-58
2023/02/18 11:03:33;;;;;;;;;;;;;;;;;;5041535;28;19919;-59
2023/02/18 11:05:58;;;;;;;;;;;;;;;;;;5046619;28;19952;-58
2023/02/18 11:08:24;;;;;;;;;;;;;;;;;;5040496;28;19939;-59
2023/02/18 11:10:50;;;;;;;;;;;;;;;;;;5040221;28;19923;-58
2023/02/18 11:13:16;;;;;;;;;;;;;;;;;;5041703;28;19940;-57
2023/02/18 11:15:42;;;;;;;;;;;;;;;;;;5033941;28;20019;-57
2023/02/18 11:18:08;;;;;;;;;;;;;;;;;;5038953;28;20008;-60
2023/02/18 11:20:34;;;;;;;;;;;;;;;;;;5037004;28;20377;-57
2023/02/18 11:23:00;;;;;;;;;;;;;;;;;;5047949;28;19963;-57
2023/02/18 11:25:26;;;;;;;;;;;;;;;;;;5042612;28;19971;-57
2023/02/18 11:27:52;;;;;;;;;;;;;;;;;;5043742;28;19992;-58
2023/02/18 11:30:18;;;;;;;;;;;;;;;;;;5041616;28;19931;-58
2023/02/18 11:32:43;;;;;;;;;;;;;;;;;;5047934;28;20013;-59
2023/02/18 11:35:09;;;;;;;;;;;;;;;;;;5044848;28;20645;-57
2023/02/18 11:37:35;;;;;;;;;;;;;;;;;;5054227;28;19913;-58
2023/02/18 11:40:01;;;;;;;;;;;;;;;;;;5045091;28;19935;-58
2023/02/18 11:42:27;;;;;;;;;;;;;;;;;;5049559;28;20000;-58
2023/02/18 11:44:53;;;;;;;;;;;;;;;;;;5042974;28;19919;-58
2023/02/18 11:47:19;;;;;;;;;;;;;;;;;;5049411;28;19921;-58
2023/02/18 11:49:45;;;;;;;;;;;;;;;;;;5042056;28;19946;-57
2023/02/18 11:52:11;;;;;;;;;;;;;;;;;;5045691;28;19960;-58
2023/02/18 11:54:37;;;;;;;;;;;;;;;;;;5048481;28;20287;-57
2023/02/18 11:57:03;;;;;;;;;;;;;;;;;;5043905;28;19916;-58
2023/02/18 11:59:29;;;;;;;;;;;;;;;;;;5050336;28;19912;-57
2023/02/18 12:01:55;;;;;;;;;;;;;;;;;;5041751;28;19971;-59
2023/02/18 12:04:20;;;;;;;;;;;;;;;;;;5041341;28;19917;-57
2023/02/18 12:06:46;;;;;;;;;;;;;;;;;;5048281;28;19912;-58
2023/02/18 12:09:12;;;;;;;;;;;;;;;;;;5041065;28;19964;-58
2023/02/18 12:11:38;;;;;;;;;;;;;;;;;;5043807;28;19920;-57
2023/02/18 12:14:04;;;;;;;;;;;;;;;;;;5046421;28;20007;-57
2023/02/18 12:16:30;;;;;;;;;;;;;;;;;;5047049;28;19967;-58
2023/02/18 12:18:56;;;;;;;;;;;;;;;;;;5041160;28;20027;-58
2023/02/18 12:21:22;;;;;;;;;;;;;;;;;;5042126;28;19976;-58
2023/02/18 12:23:48;;;;;;;;;;;;;;;;;;5043623;28;20722;-58
2023/02/18 12:26:14;;;;;;;;;;;;;;;;;;5045953;28;20384;-57
2023/02/18 12:28:40;;;;;;;;;;;;;;;;;;5038664;28;19958;-58
2023/02/18 12:31:05;;;;;;;;;;;;;;;;;;5043356;28;19974;-58
2023/02/18 12:33:31;;;;;;;;;;;;;;;;;;5043532;28;19920;-59
2023/02/18 12:35:57;;;;;;;;;;;;;;;;;;5045654;28;19960;-58
2023/02/18 12:38:23;;;;;;;;;;;;;;;;;;5043086;28;19919;-58
2023/02/18 12:40:49;;;;;;;;;;;;;;;;;;5046464;28;19913;-57
2023/02/18 12:43:15;;;;;;;;;;;;;;;;;;5047139;28;20450;-58
2023/02/18 12:45:41;;;;;;;;;;;;;;;;;;5044119;28;19917;-58
2023/02/18 12:48:07;;;;;;;;;;;;;;;;;;5042938;28;19916;-58
2023/02/18 12:50:33;;;;;;;;;;;;;;;;;;5042177;28;19917;-57
2023/02/18 12:52:58;;;;;;;;;;;;;;;;;;5049428;28;19913;-58
2023/02/18 12:55:24;;;;;;;;;;;;;;;;;;5041376;28;19925;-57
2023/02/18 12:57:50;;;;;;;;;;;;;;;;;;5042686;28;19920;-57
2023/02/18 13:00:16;;;;;;;;;;;;;;;;;;5034760;28;19927;-57
2023/02/18 13:02:42;;;;;;;;;;;;;;;;;;5041112;28;19921;-59
2023/02/18 13:05:08;;;;;;;;;;;;;;;;;;5051891;28;20387;-58
2023/02/18 13:07:34;;;;;;;;;;;;;;;;;;5040500;28;19952;-58
2023/02/18 13:10:00;;;;;;;;;;;;;;;;;;5044274;28;19917;-57
2023/02/18 13:12:26;;;;;;;;;;;;;;;;;;5044526;28;20431;-57
2023/02/18 13:14:56;;;;;;;;;;;;;;;;;;5046153;28;19913;-58
2023/02/18 13:17:21;;;;;;;;;;;;;;;;;;5048245;28;19982;-58
2023/02/18 13:19:47;;;;;;;;;;;;;;;;;;5048438;28;19952;-57
2023/02/18 13:22:13;;;;;;;;;;;;;;;;;;5041071;28;19931;-58
2023/02/18 13:24:39;;;;;;;;;;;;;;;;;;5043454;28;19959;-58
2023/02/18 13:27:05;;;;;;;;;;;;;;;;;;5044831;28;19916;-57
2023/02/18 13:29:31;;;;;;;;;;;;;;;;;;5048722;28;19913;-59
2023/02/18 13:31:59;;;;;;;;;;;;;;;;;;5038654;28;19952;-58
2023/02/18 13:34:25;;;;;;;;;;;;;;;;;;5047651;28;19917;-58
2023/02/18 13:36:51;;;;;;;;;;;;;;;;;;5041244;28;19925;-58
2023/02/18 13:39:19;;;;;;;;;;;;;;;;;;5047873;28;20287;-57
2023/02/18 13:41:45;;;;;;;;;;;;;;;;;;5037213;28;19921;-59
2023/02/18 13:44:11;;;;;;;;;;;;;;;;;;5048876;28;19941;-59
2023/02/18 13:46:37;;;;;;;;;;;;;;;;;;5040958;28;19975;-58
2023/02/18 13:49:03;;;;;;;;;;;;;;;;;;5050622;28;19971;-58
2023/02/18 13:51:28;;;;;;;;;;;;;;;;;;5047369;28;19918;-58
2023/02/18 13:53:54;;;;;;;;;;;;;;;;;;5050008;28;19999;-58
2023/02/18 13:56:20;;;;;;;;;;;;;;;;;;5048408;28;21163;-58
2023/02/18 13:58:46;;;;;;;;;;;;;;;;;;5049274;28;19963;-58
2023/02/18 14:01:12;;;;;;;;;;;;;;;;;;5039641;28;20131;-59
2023/02/18 14:03:38;;;;;;;;;;;;;;;;;;5041372;28;20346;-57
2023/02/18 14:06:04;;;;;;;;;;;;;;;;;;5045327;28;19959;-56
2023/02/18 14:08:30;;;;;;;;;;;;;;;;;;5040977;28;20349;-58
2023/02/18 14:10:56;;;;;;;;;;;;;;;;;;5047200;28;19955;-57
2023/02/18 14:13:22;;;;;;;;;;;;;;;;;;5050839;28;19947;-57
2023/02/18 14:15:48;;;;;;;;;;;;;;;;;;5049058;28;19997;-58
2023/02/18 14:18:13;;;;;;;;;;;;;;;;;;5043064;28;19927;-57
2023/02/18 14:20:39;;;;;;;;;;;;;;;;;;5046938;28;19960;-56
2023/02/18 14:23:05;;;;;;;;;;;;;;;;;;5039979;28;20008;-52
2023/02/18 14:25:31;;;;;;;;;;;;;;;;;;5042411;28;20004;-55
2023/02/18 14:27:57;;;;;;;;;;;;;;;;;;5045662;28;20057;-57
2023/02/18 14:30:23;;;;;;;;;;;;;;;;;;5045770;28;20422;-57
2023/02/18 14:32:49;;;;;;;;;;;;;;;;;;5040529;28;19919;-50
2023/02/18 14:35:15;;;;;;;;;;;;;;;;;;5049261;28;19920;-56
2023/02/18 14:37:41;;;;;;;;;;;;;;;;;;5055630;28;20322;-57
2023/02/18 14:40:07;;;;;;;;;;;;;;;;;;5046681;28;19963;-54
2023/02/18 14:42:32;;;;;;;;;;;;;;;;;;5046484;28;19962;-55
2023/02/18 14:44:58;;;;;;;;;;;;;;;;;;5048931;28;20001;-55
2023/02/18 14:47:24;;;;;;;;;;;;;;;;;;5039226;28;20478;-56
2023/02/18 14:49:50;;;;;;;;;;;;;;;;;;5052040;28;19956;-55
2023/02/18 14:52:16;;;;;;;;;;;;;;;;;;5029281;28;19958;-55
2023/02/18 14:54:43;;;;;;;;;;;;;;;;;;5045604;28;19914;-55
2023/02/18 14:57:09;;;;;;;;;;;;;;;;;;5044904;28;19917;-53
2023/02/18 14:59:35;;;;;;;;;;;;;;;;;;5048920;28;19963;-54
2023/02/18 15:02:00;;;;;;;;;;;;;;;;;;5043692;28;20365;-54
2023/02/18 15:04:26;;;;;;;;;;;;;;;;;;5046845;28;19927;-55
2023/02/18 15:06:52;;;;;;;;;;;;;;;;;;5040592;28;19913;-55
2023/02/18 15:09:18;;;;;;;;;;;;;;;;;;5038438;28;19972;-56
2023/02/18 15:11:44;;;;;;;;;;;;;;;;;;5040082;28;19927;-56
2023/02/18 15:14:10;;;;;;;;;;;;;;;;;;5049285;28;19916;-55
2023/02/18 15:16:36;;;;;;;;;;;;;;;;;;5044311;28;20340;-55
2023/02/18 15:19:02;;;;;;;;;;;;;;;;;;5040967;28;19912;-55
2023/02/18 15:21:28;;;;;;;;;;;;;;;;;;5046040;28;19956;-55
2023/02/18 15:23:54;;;;;;;;;;;;;;;;;;5051769;28;19909;-56
2023/02/18 15:26:19;;;;;;;;;;;;;;;;;;5052565;28;20702;-55
2023/02/18 15:28:45;;;;;;;;;;;;;;;;;;5050563;28;20340;-57
2023/02/18 15:31:12;;;;;;;;;;;;;;;;;;5050845;28;19992;-57
2023/02/18 15:33:38;;;;;;;;;;;;;;;;;;5047870;28;19938;-55
2023/02/18 15:36:04;;;;;;;;;;;;;;;;;;5049871;28;19916;-55
2023/02/18 15:38:30;;;;;;;;;;;;;;;;;;5050029;28;19917;-55
2023/02/18 15:40:55;;;;;;;;;;;;;;;;;;5050238;28;20392;-54
2023/02/18 15:43:21;;;;;;;;;;;;;;;;;;5043765;28;20350;-54
2023/02/18 15:45:47;;;;;;;;;;;;;;;;;;5050632;28;19909;-55
2023/02/18 15:48:13;;;;;;;;;;;;;;;;;;5050446;28;20497;-56
2023/02/18 15:50:39;;;;;;;;;;;;;;;;;;5048381;28;19956;-54
2023/02/18 15:53:05;;;;;;;;;;;;;;;;;;5046981;28;20038;-54
2023/02/18 15:55:31;;;;;;;;;;;;;;;;;;5048353;28;19963;-55
2023/02/18 15:57:57;;;;;;;;;;;;;;;;;;5048313;28;20346;-55
2023/02/18 16:00:23;;;;;;;;;;;;;;;;;;5050726;28;19912;-56
2023/02/18 16:02:50;;;;;;;;;;;;;;;;;;5045627;28;19996;-56
2023/02/18 16:05:16;;;;;;;;;;;;;;;;;;5050658;28;19916;-57
2023/02/18 16:07:42;;;;;;;;;;;;;;;;;;5042050;28;20328;-57
2023/02/18 16:10:08;;;;;;;;;;;;;;;;;;5048795;28;20467;-54
2023/02/18 16:12:34;;;;;;;;;;;;;;;;;;5048324;28;19948;-55
2023/02/18 16:15:00;;;;;;;;;;;;;;;;;;5047910;28;20002;-56
2023/02/18 16:17:26;;;;;;;;;;;;;;;;;;5031744;28;19917;-55
2023/02/18 16:19:52;;;;;;;;;;;;;;;;;;5047531;28;20074;-55
2023/02/18 16:22:18;;;;;;;;;;;;;;;;;;5047156;28;19949;-55
2023/02/18 16:24:48;;;;;;;;;;;;;;;;;;5045477;28;19995;-55
2023/02/18 16:27:14;;;;;;;;;;;;;;;;;;5042477;28;19963;-55
2023/02/18 16:29:40;;;;;;;;;;;;;;;;;;5047445;28;19944;-54
2023/02/18 16:32:05;;;;;;;;;;;;;;;;;;5048889;28;20329;-53
2023/02/18 16:34:32;;;;;;;;;;;;;;;;;;5047148;28;20004;-56
2023/02/18 16:39:42;;;;;;;;;;;;;;;;;;5049258;28;19915;-54